sensor_id;sensor_type;location;lat;lon;timestamp;P1;durP1;ratioP1;P2;durP2;ratioP2
5351;SDS011;2698;51.454;6.736;2023-03-29T00:01:49;9.80;;;5.40;;
5351;SDS011;2698;51.454;6.736;2023-03-29T00:04:16;5.93;;;5.33;;
5351;SDS011;2698;51.454;6.736;2023-03-29T00:06:43;7.13;;;4.67;;
5351;SDS011;2698;51.454;6.736;2023-03-29T00:09:13;11.30;;;4.83;;
5351;SDS011;2698;51.454;6.736;2023-03-29T00:11:40;9.37;;;4.90;;
5351;SDS011;2698;51.454;6.736;2023-03-29T00:14:07;12.20;;;5.33;;
5351;SDS011;2698;51.454;6.736;2023-03-29T00:16:34;9.20;;;5.07;;
5351;SDS011;2698;51.454;6.736;2023-03-29T00:19:02;5.67;;;5.07;;
5351;SDS011;2698;51.454;6.736;2023-03-29T00:21:29;8.10;;;5.20;;
5351;SDS011;2698;51.454;6.736;2023-03-29T00:23:56;4.47;;;4.07;;
5351;SDS011;2698;51.454;6.736;2023-03-29T00:26:25;7.17;;;5.23;;
5351;SDS011;2698;51.454;6.736;2023-03-29T00:28:52;6.30;;;4.20;;
5351;SDS011;2698;51.454;6.736;2023-03-29T00:31:19;6.77;;;5.27;;
5351;SDS011;2698;51.454;6.736;2023-03-29T00:33:46;7.77;;;5.10;;
5351;SDS011;2698;51.454;6.736;2023-03-29T00:36:13;9.13;;;5.80;;
5351;SDS011;2698;51.454;6.736;2023-03-29T00:38:40;8.63;;;5.83;;
5351;SDS011;2698;51.454;6.736;2023-03-29T00:41:08;19.37;;;5.60;;
5351;SDS011;2698;51.454;6.736;2023-03-29T00:43:56;12.83;;;5.27;;
5351;SDS011;2698;51.454;6.736;2023-03-29T00:46:24;6.40;;;5.07;;
5351;SDS011;2698;51.454;6.736;2023-03-29T00:48:52;10.60;;;5.87;;
5351;SDS011;2698;51.454;6.736;2023-03-29T00:51:21;12.67;;;4.97;;
5351;SDS011;2698;51.454;6.736;2023-03-29T00:53:49;6.07;;;4.70;;
5351;SDS011;2698;51.454;6.736;2023-03-29T00:56:18;6.80;;;4.40;;
5351;SDS011;2698;51.454;6.736;2023-03-29T00:58:48;8.03;;;4.93;;
5351;SDS011;2698;51.454;6.736;2023-03-29T01:01:19;8.43;;;4.97;;
5351;SDS011;2698;51.454;6.736;2023-03-29T01:03:50;5.10;;;4.67;;
5351;SDS011;2698;51.454;6.736;2023-03-29T01:06:19;5.50;;;4.47;;
5351;SDS011;2698;51.454;6.736;2023-03-29T01:08:49;6.93;;;3.43;;
5351;SDS011;2698;51.454;6.736;2023-03-29T01:11:17;5.30;;;4.40;;
5351;SDS011;2698;51.454;6.736;2023-03-29T01:13:48;13.90;;;4.70;;
5351;SDS011;2698;51.454;6.736;2023-03-29T01:16:16;6.10;;;4.77;;
5351;SDS011;2698;51.454;6.736;2023-03-29T01:18:45;6.20;;;4.30;;
5351;SDS011;2698;51.454;6.736;2023-03-29T01:21:19;4.40;;;4.00;;
5351;SDS011;2698;51.454;6.736;2023-03-29T01:26:34;5.97;;;4.60;;
5351;SDS011;2698;51.454;6.736;2023-03-29T01:29:06;4.77;;;3.80;;
5351;SDS011;2698;51.454;6.736;2023-03-29T01:31:35;4.37;;;3.90;;
5351;SDS011;2698;51.454;6.736;2023-03-29T01:34:06;4.80;;;3.70;;
5351;SDS011;2698;51.454;6.736;2023-03-29T01:36:35;6.30;;;3.90;;
5351;SDS011;2698;51.454;6.736;2023-03-29T01:39:03;11.13;;;4.07;;
5351;SDS011;2698;51.454;6.736;2023-03-29T01:41:33;5.97;;;3.80;;
5351;SDS011;2698;51.454;6.736;2023-03-29T01:44:02;4.37;;;4.00;;
5351;SDS011;2698;51.454;6.736;2023-03-29T01:46:33;6.30;;;4.03;;
5351;SDS011;2698;51.454;6.736;2023-03-29T01:49:02;10.40;;;4.53;;
5351;SDS011;2698;51.454;6.736;2023-03-29T01:51:30;10.07;;;5.13;;
5351;SDS011;2698;51.454;6.736;2023-03-29T01:54:02;6.67;;;4.37;;
5351;SDS011;2698;51.454;6.736;2023-03-29T01:56:30;5.93;;;4.30;;
5351;SDS011;2698;51.454;6.736;2023-03-29T01:59:01;5.10;;;3.80;;
5351;SDS011;2698;51.454;6.736;2023-03-29T02:01:30;6.37;;;4.47;;
5351;SDS011;2698;51.454;6.736;2023-03-29T02:04:03;5.93;;;4.30;;
5351;SDS011;2698;51.454;6.736;2023-03-29T02:06:33;11.83;;;4.70;;
5351;SDS011;2698;51.454;6.736;2023-03-29T02:09:01;5.13;;;4.27;;
5351;SDS011;2698;51.454;6.736;2023-03-29T02:11:28;7.30;;;4.60;;
5351;SDS011;2698;51.454;6.736;2023-03-29T02:13:56;5.83;;;4.97;;
5351;SDS011;2698;51.454;6.736;2023-03-29T02:16:23;5.00;;;4.40;;
5351;SDS011;2698;51.454;6.736;2023-03-29T02:18:50;6.70;;;4.33;;
5351;SDS011;2698;51.454;6.736;2023-03-29T02:21:23;10.70;;;4.37;;
5351;SDS011;2698;51.454;6.736;2023-03-29T02:23:51;9.53;;;5.20;;
5351;SDS011;2698;51.454;6.736;2023-03-29T02:26:19;8.93;;;4.60;;
5351;SDS011;2698;51.454;6.736;2023-03-29T02:28:48;7.90;;;4.23;;
5351;SDS011;2698;51.454;6.736;2023-03-29T02:31:16;7.97;;;5.60;;
5351;SDS011;2698;51.454;6.736;2023-03-29T02:33:46;11.40;;;6.70;;
5351;SDS011;2698;51.454;6.736;2023-03-29T02:36:16;13.57;;;10.23;;
5351;SDS011;2698;51.454;6.736;2023-03-29T02:38:46;15.27;;;10.17;;
5351;SDS011;2698;51.454;6.736;2023-03-29T02:41:13;13.13;;;9.40;;
5351;SDS011;2698;51.454;6.736;2023-03-29T02:43:42;10.63;;;7.60;;
5351;SDS011;2698;51.454;6.736;2023-03-29T02:46:10;8.73;;;5.90;;
5351;SDS011;2698;51.454;6.736;2023-03-29T02:48:38;8.17;;;5.27;;
5351;SDS011;2698;51.454;6.736;2023-03-29T02:51:08;6.90;;;4.33;;
5351;SDS011;2698;51.454;6.736;2023-03-29T02:53:38;9.20;;;5.63;;
5351;SDS011;2698;51.454;6.736;2023-03-29T02:56:08;8.00;;;5.10;;
5351;SDS011;2698;51.454;6.736;2023-03-29T02:58:35;14.10;;;5.47;;
5351;SDS011;2698;51.454;6.736;2023-03-29T03:01:02;8.47;;;5.10;;
5351;SDS011;2698;51.454;6.736;2023-03-29T03:03:30;12.43;;;4.30;;
5351;SDS011;2698;51.454;6.736;2023-03-29T03:05:58;8.60;;;4.17;;
5351;SDS011;2698;51.454;6.736;2023-03-29T03:08:26;6.03;;;4.43;;
5351;SDS011;2698;51.454;6.736;2023-03-29T03:10:53;8.10;;;5.30;;
5351;SDS011;2698;51.454;6.736;2023-03-29T03:13:21;9.17;;;5.20;;
5351;SDS011;2698;51.454;6.736;2023-03-29T03:15:48;15.73;;;5.10;;
5351;SDS011;2698;51.454;6.736;2023-03-29T03:18:15;5.80;;;4.33;;
5351;SDS011;2698;51.454;6.736;2023-03-29T03:20:42;7.33;;;5.00;;
5351;SDS011;2698;51.454;6.736;2023-03-29T03:23:11;7.00;;;5.17;;
5351;SDS011;2698;51.454;6.736;2023-03-29T03:25:38;14.80;;;6.00;;
5351;SDS011;2698;51.454;6.736;2023-03-29T03:28:05;13.80;;;6.13;;
5351;SDS011;2698;51.454;6.736;2023-03-29T03:30:33;8.60;;;4.97;;
5351;SDS011;2698;51.454;6.736;2023-03-29T03:33:00;7.40;;;5.10;;
5351;SDS011;2698;51.454;6.736;2023-03-29T03:35:27;8.63;;;5.60;;
5351;SDS011;2698;51.454;6.736;2023-03-29T03:37:54;7.77;;;4.57;;
5351;SDS011;2698;51.454;6.736;2023-03-29T03:40:21;11.43;;;4.60;;
5351;SDS011;2698;51.454;6.736;2023-03-29T03:42:49;6.33;;;4.77;;
5351;SDS011;2698;51.454;6.736;2023-03-29T03:45:16;7.37;;;5.40;;
5351;SDS011;2698;51.454;6.736;2023-03-29T03:47:44;11.37;;;5.40;;
5351;SDS011;2698;51.454;6.736;2023-03-29T03:50:12;6.33;;;4.50;;
5351;SDS011;2698;51.454;6.736;2023-03-29T03:52:39;5.87;;;4.60;;
5351;SDS011;2698;51.454;6.736;2023-03-29T03:55:06;5.43;;;3.77;;
5351;SDS011;2698;51.454;6.736;2023-03-29T03:57:33;8.17;;;4.40;;
5351;SDS011;2698;51.454;6.736;2023-03-29T04:00:02;8.03;;;5.40;;
5351;SDS011;2698;51.454;6.736;2023-03-29T04:02:43;4.63;;;4.17;;
5351;SDS011;2698;51.454;6.736;2023-03-29T04:05:11;6.97;;;4.50;;
5351;SDS011;2698;51.454;6.736;2023-03-29T04:07:38;13.70;;;4.77;;
5351;SDS011;2698;51.454;6.736;2023-03-29T04:10:07;14.87;;;5.77;;
5351;SDS011;2698;51.454;6.736;2023-03-29T04:12:35;10.80;;;5.57;;
5351;SDS011;2698;51.454;6.736;2023-03-29T04:15:02;7.07;;;4.80;;
5351;SDS011;2698;51.454;6.736;2023-03-29T04:17:30;9.17;;;4.97;;
5351;SDS011;2698;51.454;6.736;2023-03-29T04:19:57;9.83;;;5.60;;
5351;SDS011;2698;51.454;6.736;2023-03-29T04:22:26;8.37;;;5.60;;
5351;SDS011;2698;51.454;6.736;2023-03-29T04:24:53;9.90;;;5.40;;
5351;SDS011;2698;51.454;6.736;2023-03-29T04:27:20;6.93;;;5.57;;
5351;SDS011;2698;51.454;6.736;2023-03-29T04:29:47;16.00;;;6.27;;
5351;SDS011;2698;51.454;6.736;2023-03-29T04:32:14;12.10;;;6.37;;
5351;SDS011;2698;51.454;6.736;2023-03-29T04:34:42;17.93;;;7.13;;
5351;SDS011;2698;51.454;6.736;2023-03-29T04:37:09;13.43;;;6.67;;
5351;SDS011;2698;51.454;6.736;2023-03-29T04:39:37;18.87;;;6.10;;
5351;SDS011;2698;51.454;6.736;2023-03-29T04:42:05;13.90;;;6.43;;
5351;SDS011;2698;51.454;6.736;2023-03-29T04:44:32;10.53;;;6.07;;
5351;SDS011;2698;51.454;6.736;2023-03-29T04:47:00;9.13;;;5.60;;
5351;SDS011;2698;51.454;6.736;2023-03-29T04:49:27;8.47;;;6.27;;
5351;SDS011;2698;51.454;6.736;2023-03-29T04:51:55;9.47;;;6.50;;
5351;SDS011;2698;51.454;6.736;2023-03-29T04:54:22;14.77;;;7.00;;
5351;SDS011;2698;51.454;6.736;2023-03-29T04:56:50;12.93;;;7.73;;
5351;SDS011;2698;51.454;6.736;2023-03-29T04:59:17;20.00;;;6.83;;
5351;SDS011;2698;51.454;6.736;2023-03-29T05:01:44;16.43;;;7.07;;
5351;SDS011;2698;51.454;6.736;2023-03-29T05:04:11;15.27;;;8.20;;
5351;SDS011;2698;51.454;6.736;2023-03-29T05:06:39;11.93;;;6.90;;
5351;SDS011;2698;51.454;6.736;2023-03-29T05:09:06;7.97;;;7.10;;
5351;SDS011;2698;51.454;6.736;2023-03-29T05:11:34;12.00;;;8.50;;
5351;SDS011;2698;51.454;6.736;2023-03-29T05:14:03;13.60;;;8.07;;
5351;SDS011;2698;51.454;6.736;2023-03-29T05:16:32;30.13;;;9.73;;
5351;SDS011;2698;51.454;6.736;2023-03-29T05:19:02;16.17;;;9.57;;
5351;SDS011;2698;51.454;6.736;2023-03-29T05:21:29;14.60;;;8.67;;
5351;SDS011;2698;51.454;6.736;2023-03-29T05:23:57;13.00;;;8.70;;
5351;SDS011;2698;51.454;6.736;2023-03-29T05:26:24;15.83;;;9.07;;
5351;SDS011;2698;51.454;6.736;2023-03-29T05:28:51;10.07;;;8.43;;
5351;SDS011;2698;51.454;6.736;2023-03-29T05:31:22;11.17;;;9.33;;
5351;SDS011;2698;51.454;6.736;2023-03-29T05:33:49;12.53;;;8.80;;
5351;SDS011;2698;51.454;6.736;2023-03-29T05:36:17;14.83;;;8.90;;
5351;SDS011;2698;51.454;6.736;2023-03-29T05:38:44;25.47;;;11.17;;
5351;SDS011;2698;51.454;6.736;2023-03-29T05:41:12;14.20;;;9.37;;
5351;SDS011;2698;51.454;6.736;2023-03-29T05:43:39;12.10;;;9.10;;
5351;SDS011;2698;51.454;6.736;2023-03-29T05:46:07;13.33;;;9.87;;
5351;SDS011;2698;51.454;6.736;2023-03-29T05:48:35;12.63;;;9.17;;
5351;SDS011;2698;51.454;6.736;2023-03-29T05:51:02;23.93;;;10.73;;
5351;SDS011;2698;51.454;6.736;2023-03-29T05:53:29;18.20;;;10.00;;
5351;SDS011;2698;51.454;6.736;2023-03-29T05:55:57;14.37;;;10.07;;
5351;SDS011;2698;51.454;6.736;2023-03-29T05:58:24;15.13;;;9.60;;
5351;SDS011;2698;51.454;6.736;2023-03-29T06:00:52;17.10;;;9.63;;
5351;SDS011;2698;51.454;6.736;2023-03-29T06:03:20;12.93;;;9.80;;
5351;SDS011;2698;51.454;6.736;2023-03-29T06:05:55;20.10;;;8.40;;
5351;SDS011;2698;51.454;6.736;2023-03-29T06:08:23;20.23;;;9.90;;
5351;SDS011;2698;51.454;6.736;2023-03-29T06:10:50;10.73;;;8.13;;
5351;SDS011;2698;51.454;6.736;2023-03-29T06:13:17;14.63;;;8.13;;
5351;SDS011;2698;51.454;6.736;2023-03-29T06:15:44;16.40;;;9.17;;
5351;SDS011;2698;51.454;6.736;2023-03-29T06:18:11;11.77;;;8.60;;
5351;SDS011;2698;51.454;6.736;2023-03-29T06:20:39;15.60;;;9.53;;
5351;SDS011;2698;51.454;6.736;2023-03-29T06:23:08;14.33;;;10.30;;
5351;SDS011;2698;51.454;6.736;2023-03-29T06:25:35;12.40;;;9.83;;
5351;SDS011;2698;51.454;6.736;2023-03-29T06:28:02;15.20;;;9.30;;
5351;SDS011;2698;51.454;6.736;2023-03-29T06:30:30;11.43;;;8.77;;
5351;SDS011;2698;51.454;6.736;2023-03-29T06:32:57;22.03;;;10.30;;
5351;SDS011;2698;51.454;6.736;2023-03-29T06:35:25;19.40;;;9.40;;
5351;SDS011;2698;51.454;6.736;2023-03-29T06:37:52;14.10;;;9.27;;
5351;SDS011;2698;51.454;6.736;2023-03-29T06:40:21;21.97;;;11.50;;
5351;SDS011;2698;51.454;6.736;2023-03-29T06:42:48;13.83;;;8.87;;
5351;SDS011;2698;51.454;6.736;2023-03-29T06:45:21;17.77;;;9.40;;
5351;SDS011;2698;51.454;6.736;2023-03-29T06:47:48;21.63;;;10.40;;
5351;SDS011;2698;51.454;6.736;2023-03-29T06:50:15;21.80;;;10.40;;
5351;SDS011;2698;51.454;6.736;2023-03-29T06:52:43;23.33;;;10.50;;
5351;SDS011;2698;51.454;6.736;2023-03-29T06:55:10;21.70;;;10.53;;
5351;SDS011;2698;51.454;6.736;2023-03-29T06:57:38;24.40;;;12.73;;
5351;SDS011;2698;51.454;6.736;2023-03-29T07:00:07;28.10;;;12.20;;
5351;SDS011;2698;51.454;6.736;2023-03-29T07:02:41;20.70;;;10.10;;
5351;SDS011;2698;51.454;6.736;2023-03-29T07:05:08;17.93;;;9.37;;
5351;SDS011;2698;51.454;6.736;2023-03-29T07:07:37;16.60;;;8.93;;
5351;SDS011;2698;51.454;6.736;2023-03-29T07:10:17;28.50;;;8.90;;
5351;SDS011;2698;51.454;6.736;2023-03-29T07:12:47;28.60;;;10.43;;
5351;SDS011;2698;51.454;6.736;2023-03-29T07:15:14;24.93;;;10.27;;
5351;SDS011;2698;51.454;6.736;2023-03-29T07:17:41;24.10;;;9.80;;
5351;SDS011;2698;51.454;6.736;2023-03-29T07:20:09;25.20;;;11.20;;
5351;SDS011;2698;51.454;6.736;2023-03-29T07:22:38;21.27;;;9.60;;
5351;SDS011;2698;51.454;6.736;2023-03-29T07:25:06;25.10;;;9.20;;
5351;SDS011;2698;51.454;6.736;2023-03-29T07:27:34;20.73;;;8.50;;
5351;SDS011;2698;51.454;6.736;2023-03-29T07:30:05;11.37;;;7.40;;
5351;SDS011;2698;51.454;6.736;2023-03-29T07:32:34;11.63;;;6.40;;
5351;SDS011;2698;51.454;6.736;2023-03-29T07:35:02;12.50;;;6.63;;
5351;SDS011;2698;51.454;6.736;2023-03-29T07:37:30;17.73;;;6.27;;
5351;SDS011;2698;51.454;6.736;2023-03-29T07:39:58;10.40;;;6.17;;
5351;SDS011;2698;51.454;6.736;2023-03-29T07:42:27;11.17;;;7.00;;
5351;SDS011;2698;51.454;6.736;2023-03-29T07:44:54;21.47;;;6.67;;
5351;SDS011;2698;51.454;6.736;2023-03-29T07:47:23;13.10;;;6.70;;
5351;SDS011;2698;51.454;6.736;2023-03-29T07:49:50;15.10;;;6.53;;
5351;SDS011;2698;51.454;6.736;2023-03-29T07:52:18;21.30;;;5.70;;
5351;SDS011;2698;51.454;6.736;2023-03-29T07:54:45;10.93;;;6.50;;
5351;SDS011;2698;51.454;6.736;2023-03-29T07:57:13;12.63;;;5.00;;
5351;SDS011;2698;51.454;6.736;2023-03-29T07:59:40;8.10;;;6.83;;
5351;SDS011;2698;51.454;6.736;2023-03-29T08:02:07;16.20;;;7.03;;
5351;SDS011;2698;51.454;6.736;2023-03-29T08:04:36;13.30;;;6.00;;
5351;SDS011;2698;51.454;6.736;2023-03-29T08:07:04;14.90;;;6.07;;
5351;SDS011;2698;51.454;6.736;2023-03-29T08:09:31;6.80;;;5.83;;
5351;SDS011;2698;51.454;6.736;2023-03-29T08:11:58;7.87;;;5.20;;
5351;SDS011;2698;51.454;6.736;2023-03-29T08:14:25;19.03;;;5.80;;
5351;SDS011;2698;51.454;6.736;2023-03-29T08:16:52;6.73;;;5.43;;
5351;SDS011;2698;51.454;6.736;2023-03-29T08:19:19;10.43;;;6.23;;
5351;SDS011;2698;51.454;6.736;2023-03-29T08:21:48;13.30;;;5.50;;
5351;SDS011;2698;51.454;6.736;2023-03-29T08:24:16;14.30;;;6.87;;
5351;SDS011;2698;51.454;6.736;2023-03-29T08:26:43;9.00;;;6.47;;
5351;SDS011;2698;51.454;6.736;2023-03-29T08:29:10;14.43;;;6.10;;
5351;SDS011;2698;51.454;6.736;2023-03-29T08:31:37;13.60;;;6.63;;
5351;SDS011;2698;51.454;6.736;2023-03-29T08:34:04;17.57;;;6.57;;
5351;SDS011;2698;51.454;6.736;2023-03-29T08:36:31;16.40;;;5.77;;
5351;SDS011;2698;51.454;6.736;2023-03-29T08:39:00;15.90;;;6.67;;
5351;SDS011;2698;51.454;6.736;2023-03-29T08:41:30;7.50;;;5.63;;
5351;SDS011;2698;51.454;6.736;2023-03-29T08:44:06;8.67;;;5.90;;
5351;SDS011;2698;51.454;6.736;2023-03-29T08:46:38;15.90;;;6.70;;
5351;SDS011;2698;51.454;6.736;2023-03-29T08:49:07;19.20;;;6.43;;
5351;SDS011;2698;51.454;6.736;2023-03-29T08:51:37;11.13;;;5.87;;
5351;SDS011;2698;51.454;6.736;2023-03-29T08:54:09;22.73;;;6.67;;
5351;SDS011;2698;51.454;6.736;2023-03-29T08:56:37;23.53;;;7.13;;
5351;SDS011;2698;51.454;6.736;2023-03-29T08:59:07;15.33;;;6.60;;
5351;SDS011;2698;51.454;6.736;2023-03-29T09:01:38;16.20;;;6.83;;
5351;SDS011;2698;51.454;6.736;2023-03-29T09:04:05;13.90;;;7.40;;
5351;SDS011;2698;51.454;6.736;2023-03-29T09:06:33;23.10;;;8.07;;
5351;SDS011;2698;51.454;6.736;2023-03-29T09:09:01;12.70;;;8.07;;
5351;SDS011;2698;51.454;6.736;2023-03-29T09:11:36;13.97;;;7.70;;
5351;SDS011;2698;51.454;6.736;2023-03-29T09:14:08;18.73;;;7.50;;
5351;SDS011;2698;51.454;6.736;2023-03-29T09:16:40;21.57;;;8.00;;
5351;SDS011;2698;51.454;6.736;2023-03-29T09:19:24;15.03;;;8.37;;
5351;SDS011;2698;51.454;6.736;2023-03-29T09:21:54;22.27;;;8.83;;
5351;SDS011;2698;51.454;6.736;2023-03-29T09:24:38;26.10;;;11.50;;
5351;SDS011;2698;51.454;6.736;2023-03-29T09:27:08;19.70;;;10.90;;
5351;SDS011;2698;51.454;6.736;2023-03-29T09:29:43;28.97;;;12.97;;
5351;SDS011;2698;51.454;6.736;2023-03-29T09:32:14;40.20;;;14.77;;
5351;SDS011;2698;51.454;6.736;2023-03-29T09:34:44;34.83;;;12.70;;
5351;SDS011;2698;51.454;6.736;2023-03-29T09:37:14;20.90;;;11.73;;
5351;SDS011;2698;51.454;6.736;2023-03-29T09:39:46;28.80;;;11.63;;
5351;SDS011;2698;51.454;6.736;2023-03-29T09:42:15;34.23;;;12.13;;
5351;SDS011;2698;51.454;6.736;2023-03-29T09:44:44;28.67;;;9.57;;
5351;SDS011;2698;51.454;6.736;2023-03-29T09:47:16;21.83;;;11.50;;
5351;SDS011;2698;51.454;6.736;2023-03-29T09:49:45;14.60;;;9.23;;
5351;SDS011;2698;51.454;6.736;2023-03-29T09:52:13;20.83;;;8.80;;
5351;SDS011;2698;51.454;6.736;2023-03-29T09:54:41;23.80;;;9.17;;
5351;SDS011;2698;51.454;6.736;2023-03-29T09:57:10;25.30;;;7.93;;
5351;SDS011;2698;51.454;6.736;2023-03-29T09:59:38;26.57;;;12.10;;
5351;SDS011;2698;51.454;6.736;2023-03-29T10:02:06;24.37;;;10.10;;
5351;SDS011;2698;51.454;6.736;2023-03-29T10:04:34;24.30;;;10.40;;
5351;SDS011;2698;51.454;6.736;2023-03-29T10:07:02;12.70;;;7.80;;
5351;SDS011;2698;51.454;6.736;2023-03-29T10:09:30;22.30;;;7.50;;
5351;SDS011;2698;51.454;6.736;2023-03-29T10:11:58;14.10;;;8.10;;
5351;SDS011;2698;51.454;6.736;2023-03-29T10:14:30;11.10;;;8.33;;
5351;SDS011;2698;51.454;6.736;2023-03-29T10:16:59;10.53;;;7.00;;
5351;SDS011;2698;51.454;6.736;2023-03-29T10:19:27;12.07;;;8.27;;
5351;SDS011;2698;51.454;6.736;2023-03-29T10:21:58;17.30;;;9.10;;
5351;SDS011;2698;51.454;6.736;2023-03-29T10:24:26;19.03;;;7.13;;
5351;SDS011;2698;51.454;6.736;2023-03-29T10:26:54;21.07;;;6.83;;
5351;SDS011;2698;51.454;6.736;2023-03-29T10:29:23;11.10;;;7.17;;
5351;SDS011;2698;51.454;6.736;2023-03-29T10:31:52;19.17;;;6.70;;
5351;SDS011;2698;51.454;6.736;2023-03-29T10:34:21;10.13;;;6.33;;
5351;SDS011;2698;51.454;6.736;2023-03-29T10:36:52;13.60;;;6.77;;
5351;SDS011;2698;51.454;6.736;2023-03-29T10:39:21;10.90;;;7.60;;
5351;SDS011;2698;51.454;6.736;2023-03-29T10:41:49;13.07;;;5.90;;
5351;SDS011;2698;51.454;6.736;2023-03-29T10:44:26;13.60;;;5.80;;
5351;SDS011;2698;51.454;6.736;2023-03-29T10:46:55;8.70;;;6.00;;
5351;SDS011;2698;51.454;6.736;2023-03-29T10:49:23;10.47;;;5.57;;
5351;SDS011;2698;51.454;6.736;2023-03-29T10:51:51;13.87;;;7.40;;
5351;SDS011;2698;51.454;6.736;2023-03-29T10:54:19;12.83;;;6.50;;
5351;SDS011;2698;51.454;6.736;2023-03-29T10:56:47;13.93;;;5.73;;
5351;SDS011;2698;51.454;6.736;2023-03-29T10:59:20;14.90;;;6.10;;
5351;SDS011;2698;51.454;6.736;2023-03-29T11:01:52;14.83;;;6.53;;
5351;SDS011;2698;51.454;6.736;2023-03-29T11:04:25;11.97;;;7.80;;
5351;SDS011;2698;51.454;6.736;2023-03-29T11:06:57;10.10;;;5.77;;
5351;SDS011;2698;51.454;6.736;2023-03-29T11:09:32;18.43;;;6.50;;
5351;SDS011;2698;51.454;6.736;2023-03-29T11:12:06;13.40;;;6.90;;
5351;SDS011;2698;51.454;6.736;2023-03-29T11:14:37;16.77;;;5.17;;
5351;SDS011;2698;51.454;6.736;2023-03-29T11:17:09;9.20;;;5.80;;
5351;SDS011;2698;51.454;6.736;2023-03-29T11:19:44;10.17;;;6.13;;
5351;SDS011;2698;51.454;6.736;2023-03-29T11:22:15;12.80;;;6.17;;
5351;SDS011;2698;51.454;6.736;2023-03-29T11:24:49;10.30;;;5.97;;
5351;SDS011;2698;51.454;6.736;2023-03-29T11:27:21;7.60;;;5.40;;
5351;SDS011;2698;51.454;6.736;2023-03-29T11:29:56;11.30;;;5.63;;
5351;SDS011;2698;51.454;6.736;2023-03-29T11:32:27;20.53;;;11.17;;
5351;SDS011;2698;51.454;6.736;2023-03-29T11:34:58;10.20;;;6.97;;
5351;SDS011;2698;51.454;6.736;2023-03-29T11:37:29;12.50;;;6.07;;
5351;SDS011;2698;51.454;6.736;2023-03-29T11:40:02;14.23;;;6.40;;
5351;SDS011;2698;51.454;6.736;2023-03-29T11:42:32;6.73;;;5.53;;
5351;SDS011;2698;51.454;6.736;2023-03-29T11:45:00;7.13;;;5.70;;
5351;SDS011;2698;51.454;6.736;2023-03-29T11:47:30;12.80;;;6.13;;
5351;SDS011;2698;51.454;6.736;2023-03-29T11:49:59;14.63;;;6.50;;
5351;SDS011;2698;51.454;6.736;2023-03-29T11:52:31;15.83;;;7.23;;
5351;SDS011;2698;51.454;6.736;2023-03-29T11:55:00;14.43;;;6.20;;
5351;SDS011;2698;51.454;6.736;2023-03-29T11:57:29;23.63;;;9.50;;
5351;SDS011;2698;51.454;6.736;2023-03-29T11:59:59;22.90;;;7.67;;
5351;SDS011;2698;51.454;6.736;2023-03-29T12:02:30;20.73;;;7.70;;
5351;SDS011;2698;51.454;6.736;2023-03-29T12:05:01;12.43;;;6.73;;
5351;SDS011;2698;51.454;6.736;2023-03-29T12:07:31;8.50;;;5.30;;
5351;SDS011;2698;51.454;6.736;2023-03-29T12:10:02;5.80;;;4.53;;
5351;SDS011;2698;51.454;6.736;2023-03-29T12:12:35;24.03;;;6.10;;
5351;SDS011;2698;51.454;6.736;2023-03-29T12:15:05;11.60;;;4.60;;
5351;SDS011;2698;51.454;6.736;2023-03-29T12:17:36;7.90;;;4.13;;
5351;SDS011;2698;51.454;6.736;2023-03-29T12:20:09;15.03;;;4.77;;
5351;SDS011;2698;51.454;6.736;2023-03-29T12:22:36;10.03;;;3.97;;
5351;SDS011;2698;51.454;6.736;2023-03-29T12:25:04;8.93;;;4.17;;
5351;SDS011;2698;51.454;6.736;2023-03-29T12:27:32;7.67;;;4.90;;
5351;SDS011;2698;51.454;6.736;2023-03-29T12:32:46;8.00;;;4.97;;
5351;SDS011;2698;51.454;6.736;2023-03-29T12:35:21;8.30;;;4.33;;
5351;SDS011;2698;51.454;6.736;2023-03-29T12:37:54;11.40;;;4.40;;
5351;SDS011;2698;51.454;6.736;2023-03-29T12:40:25;8.80;;;4.40;;
5351;SDS011;2698;51.454;6.736;2023-03-29T12:42:53;5.50;;;3.70;;
5351;SDS011;2698;51.454;6.736;2023-03-29T12:45:27;8.80;;;4.03;;
5351;SDS011;2698;51.454;6.736;2023-03-29T12:47:55;6.20;;;3.27;;
5351;SDS011;2698;51.454;6.736;2023-03-29T12:50:25;9.60;;;3.70;;
5351;SDS011;2698;51.454;6.736;2023-03-29T12:53:00;11.80;;;3.80;;
5351;SDS011;2698;51.454;6.736;2023-03-29T12:55:29;6.37;;;3.53;;
5351;SDS011;2698;51.454;6.736;2023-03-29T12:57:59;7.83;;;3.77;;
5351;SDS011;2698;51.454;6.736;2023-03-29T13:00:30;6.00;;;3.67;;
5351;SDS011;2698;51.454;6.736;2023-03-29T13:02:58;5.63;;;3.70;;
5351;SDS011;2698;51.454;6.736;2023-03-29T13:05:28;8.63;;;4.37;;
5351;SDS011;2698;51.454;6.736;2023-03-29T13:07:55;10.43;;;3.60;;
5351;SDS011;2698;51.454;6.736;2023-03-29T13:10:32;4.40;;;3.03;;
5351;SDS011;2698;51.454;6.736;2023-03-29T13:13:06;4.90;;;3.50;;
5351;SDS011;2698;51.454;6.736;2023-03-29T13:15:35;6.60;;;3.77;;
5351;SDS011;2698;51.454;6.736;2023-03-29T13:18:05;4.50;;;3.60;;
5351;SDS011;2698;51.454;6.736;2023-03-29T13:20:39;7.57;;;3.23;;
5351;SDS011;2698;51.454;6.736;2023-03-29T13:25:59;9.43;;;3.43;;
5351;SDS011;2698;51.454;6.736;2023-03-29T13:28:33;13.77;;;3.90;;
5351;SDS011;2698;51.454;6.736;2023-03-29T13:31:03;4.93;;;4.00;;
5351;SDS011;2698;51.454;6.736;2023-03-29T13:33:36;9.00;;;4.33;;
5351;SDS011;2698;51.454;6.736;2023-03-29T13:36:07;10.23;;;4.37;;
5351;SDS011;2698;51.454;6.736;2023-03-29T13:38:43;9.67;;;4.93;;
5351;SDS011;2698;51.454;6.736;2023-03-29T13:41:21;6.63;;;3.80;;
5351;SDS011;2698;51.454;6.736;2023-03-29T13:43:51;6.27;;;4.03;;
5351;SDS011;2698;51.454;6.736;2023-03-29T13:46:22;7.77;;;3.90;;
5351;SDS011;2698;51.454;6.736;2023-03-29T13:48:53;7.40;;;4.27;;
5351;SDS011;2698;51.454;6.736;2023-03-29T13:51:31;8.93;;;3.53;;
5351;SDS011;2698;51.454;6.736;2023-03-29T13:54:00;9.53;;;3.87;;
5351;SDS011;2698;51.454;6.736;2023-03-29T13:56:30;15.57;;;3.20;;
5351;SDS011;2698;51.454;6.736;2023-03-29T13:59:00;7.13;;;3.43;;
5351;SDS011;2698;51.454;6.736;2023-03-29T14:01:30;6.57;;;4.00;;
5351;SDS011;2698;51.454;6.736;2023-03-29T14:04:01;6.27;;;3.90;;
5351;SDS011;2698;51.454;6.736;2023-03-29T14:06:32;10.83;;;4.07;;
5351;SDS011;2698;51.454;6.736;2023-03-29T14:09:01;5.00;;;3.20;;
5351;SDS011;2698;51.454;6.736;2023-03-29T14:11:30;7.43;;;3.60;;
5351;SDS011;2698;51.454;6.736;2023-03-29T14:13:58;10.53;;;3.60;;
5351;SDS011;2698;51.454;6.736;2023-03-29T14:16:26;4.10;;;3.63;;
5351;SDS011;2698;51.454;6.736;2023-03-29T14:18:56;11.60;;;4.00;;
5351;SDS011;2698;51.454;6.736;2023-03-29T14:21:24;4.87;;;2.70;;
5351;SDS011;2698;51.454;6.736;2023-03-29T14:23:54;5.63;;;3.33;;
5351;SDS011;2698;51.454;6.736;2023-03-29T14:26:22;4.70;;;3.20;;
5351;SDS011;2698;51.454;6.736;2023-03-29T14:28:50;6.87;;;3.00;;
5351;SDS011;2698;51.454;6.736;2023-03-29T14:31:18;2.77;;;2.57;;
5351;SDS011;2698;51.454;6.736;2023-03-29T14:33:50;4.40;;;3.37;;
5351;SDS011;2698;51.454;6.736;2023-03-29T14:36:17;6.80;;;3.10;;
5351;SDS011;2698;51.454;6.736;2023-03-29T14:38:47;3.50;;;2.37;;
5351;SDS011;2698;51.454;6.736;2023-03-29T14:41:16;8.10;;;3.40;;
5351;SDS011;2698;51.454;6.736;2023-03-29T14:43:44;3.30;;;3.00;;
5351;SDS011;2698;51.454;6.736;2023-03-29T14:46:12;2.73;;;2.13;;
5351;SDS011;2698;51.454;6.736;2023-03-29T14:48:41;4.27;;;2.73;;
5351;SDS011;2698;51.454;6.736;2023-03-29T14:51:09;5.07;;;2.37;;
5351;SDS011;2698;51.454;6.736;2023-03-29T14:53:36;5.93;;;2.23;;
5351;SDS011;2698;51.454;6.736;2023-03-29T14:56:04;2.97;;;2.70;;
5351;SDS011;2698;51.454;6.736;2023-03-29T14:58:34;6.33;;;1.90;;
5351;SDS011;2698;51.454;6.736;2023-03-29T15:01:04;2.93;;;2.63;;
5351;SDS011;2698;51.454;6.736;2023-03-29T15:03:40;2.73;;;2.53;;
5351;SDS011;2698;51.454;6.736;2023-03-29T15:06:08;2.27;;;2.07;;
5351;SDS011;2698;51.454;6.736;2023-03-29T15:08:36;2.63;;;2.43;;
5351;SDS011;2698;51.454;6.736;2023-03-29T15:11:08;9.40;;;3.40;;
5351;SDS011;2698;51.454;6.736;2023-03-29T15:13:39;12.10;;;3.10;;
5351;SDS011;2698;51.454;6.736;2023-03-29T15:16:07;6.63;;;2.37;;
5351;SDS011;2698;51.454;6.736;2023-03-29T15:18:36;7.53;;;3.10;;
5351;SDS011;2698;51.454;6.736;2023-03-29T15:21:04;6.13;;;2.43;;
5351;SDS011;2698;51.454;6.736;2023-03-29T15:23:35;3.67;;;2.57;;
5351;SDS011;2698;51.454;6.736;2023-03-29T15:26:07;4.90;;;3.00;;